sensor_id;sensor_type;location;lat;lon;timestamp;P1;durP1;ratioP1;P2;durP2;ratioP2
56720;SDS011;53183;47.412;18.884;2023-03-04T00:00:12;25.00;;;10.63;;
56720;SDS011;53183;47.412;18.884;2023-03-04T00:02:40;33.75;;;11.95;;
56720;SDS011;53183;47.412;18.884;2023-03-04T00:05:07;25.50;;;10.48;;
56720;SDS011;53183;47.412;18.884;2023-03-04T00:07:34;25.05;;;9.77;;
56720;SDS011;53183;47.412;18.884;2023-03-04T00:10:02;22.30;;;10.48;;
56720;SDS011;53183;47.412;18.884;2023-03-04T00:12:30;23.60;;;10.52;;
56720;SDS011;53183;47.412;18.884;2023-03-04T00:14:57;26.08;;;10.55;;
56720;SDS011;53183;47.412;18.884;2023-03-04T00:17:25;17.92;;;9.05;;
56720;SDS011;53183;47.412;18.884;2023-03-04T00:19:52;28.05;;;10.82;;
56720;SDS011;53183;47.412;18.884;2023-03-04T00:22:19;24.15;;;9.65;;
56720;SDS011;53183;47.412;18.884;2023-03-04T00:24:46;21.92;;;9.57;;
56720;SDS011;53183;47.412;18.884;2023-03-04T00:27:13;21.40;;;9.73;;
56720;SDS011;53183;47.412;18.884;2023-03-04T00:29:41;22.35;;;8.88;;
56720;SDS011;53183;47.412;18.884;2023-03-04T00:32:08;24.55;;;9.30;;
56720;SDS011;53183;47.412;18.884;2023-03-04T00:34:35;23.02;;;9.15;;
56720;SDS011;53183;47.412;18.884;2023-03-04T00:37:03;18.92;;;8.20;;
56720;SDS011;53183;47.412;18.884;2023-03-04T00:39:30;23.38;;;9.13;;
56720;SDS011;53183;47.412;18.884;2023-03-04T00:41:57;30.23;;;10.50;;
56720;SDS011;53183;47.412;18.884;2023-03-04T00:44:24;24.05;;;9.55;;
56720;SDS011;53183;47.412;18.884;2023-03-04T00:46:52;23.48;;;9.80;;
56720;SDS011;53183;47.412;18.884;2023-03-04T00:49:19;21.08;;;9.27;;
56720;SDS011;53183;47.412;18.884;2023-03-04T00:51:46;19.70;;;7.90;;
56720;SDS011;53183;47.412;18.884;2023-03-04T00:54:14;21.48;;;9.00;;
56720;SDS011;53183;47.412;18.884;2023-03-04T00:56:41;21.77;;;9.18;;
56720;SDS011;53183;47.412;18.884;2023-03-04T00:59:09;20.83;;;9.57;;
56720;SDS011;53183;47.412;18.884;2023-03-04T01:01:38;28.30;;;10.75;;
56720;SDS011;53183;47.412;18.884;2023-03-04T01:04:06;23.20;;;10.07;;
56720;SDS011;53183;47.412;18.884;2023-03-04T01:06:33;25.37;;;10.05;;
56720;SDS011;53183;47.412;18.884;2023-03-04T01:09:01;25.35;;;9.35;;
56720;SDS011;53183;47.412;18.884;2023-03-04T01:11:29;22.90;;;10.10;;
56720;SDS011;53183;47.412;18.884;2023-03-04T01:13:56;30.92;;;11.02;;
56720;SDS011;53183;47.412;18.884;2023-03-04T01:16:25;23.87;;;10.25;;
56720;SDS011;53183;47.412;18.884;2023-03-04T01:18:53;24.40;;;10.60;;
56720;SDS011;53183;47.412;18.884;2023-03-04T01:21:20;21.17;;;9.52;;
56720;SDS011;53183;47.412;18.884;2023-03-04T01:23:47;19.42;;;8.55;;
56720;SDS011;53183;47.412;18.884;2023-03-04T01:26:14;19.52;;;8.35;;
56720;SDS011;53183;47.412;18.884;2023-03-04T01:28:42;19.25;;;7.87;;
56720;SDS011;53183;47.412;18.884;2023-03-04T01:31:09;20.17;;;8.90;;
56720;SDS011;53183;47.412;18.884;2023-03-04T01:33:36;22.80;;;8.55;;
56720;SDS011;53183;47.412;18.884;2023-03-04T01:36:04;19.80;;;8.45;;
56720;SDS011;53183;47.412;18.884;2023-03-04T01:38:31;18.75;;;8.13;;
56720;SDS011;53183;47.412;18.884;2023-03-04T01:41:00;19.42;;;8.57;;
56720;SDS011;53183;47.412;18.884;2023-03-04T01:43:28;18.67;;;9.18;;
56720;SDS011;53183;47.412;18.884;2023-03-04T01:45:56;18.92;;;8.77;;
56720;SDS011;53183;47.412;18.884;2023-03-04T01:48:25;19.08;;;8.40;;
56720;SDS011;53183;47.412;18.884;2023-03-04T01:50:57;25.98;;;9.05;;
56720;SDS011;53183;47.412;18.884;2023-03-04T01:53:31;32.90;;;9.02;;
56720;SDS011;53183;47.412;18.884;2023-03-04T01:56:04;23.70;;;9.30;;
56720;SDS011;53183;47.412;18.884;2023-03-04T01:58:38;18.73;;;9.10;;
56720;SDS011;53183;47.412;18.884;2023-03-04T02:01:05;18.62;;;8.10;;
56720;SDS011;53183;47.412;18.884;2023-03-04T02:03:34;20.35;;;8.57;;
56720;SDS011;53183;47.412;18.884;2023-03-04T02:06:01;19.12;;;8.40;;
56720;SDS011;53183;47.412;18.884;2023-03-04T02:08:28;23.38;;;8.48;;
56720;SDS011;53183;47.412;18.884;2023-03-04T02:10:56;20.17;;;7.87;;
56720;SDS011;53183;47.412;18.884;2023-03-04T02:13:41;19.75;;;8.95;;
56720;SDS011;53183;47.412;18.884;2023-03-04T02:16:09;15.90;;;7.60;;
56720;SDS011;53183;47.412;18.884;2023-03-04T02:18:36;23.33;;;10.60;;
56720;SDS011;53183;47.412;18.884;2023-03-04T02:21:07;18.70;;;8.18;;
56720;SDS011;53183;47.412;18.884;2023-03-04T02:24:05;20.88;;;8.45;;
56720;SDS011;53183;47.412;18.884;2023-03-04T02:26:53;21.95;;;8.43;;
56720;SDS011;53183;47.412;18.884;2023-03-04T02:29:21;20.52;;;7.93;;
56720;SDS011;53183;47.412;18.884;2023-03-04T02:31:49;24.37;;;9.57;;
56720;SDS011;53183;47.412;18.884;2023-03-04T02:34:21;25.73;;;9.10;;
56720;SDS011;53183;47.412;18.884;2023-03-04T02:36:52;23.87;;;9.32;;
56720;SDS011;53183;47.412;18.884;2023-03-04T02:41:52;27.67;;;8.73;;
56720;SDS011;53183;47.412;18.884;2023-03-04T02:44:25;20.88;;;7.55;;
56720;SDS011;53183;47.412;18.884;2023-03-04T02:46:56;17.20;;;7.35;;
56720;SDS011;53183;47.412;18.884;2023-03-04T02:49:25;22.13;;;8.25;;
56720;SDS011;53183;47.412;18.884;2023-03-04T02:54:30;20.90;;;8.77;;
56720;SDS011;53183;47.412;18.884;2023-03-04T02:57:03;16.20;;;8.00;;
56720;SDS011;53183;47.412;18.884;2023-03-04T02:59:33;25.45;;;9.43;;
56720;SDS011;53183;47.412;18.884;2023-03-04T03:02:01;20.65;;;8.27;;
56720;SDS011;53183;47.412;18.884;2023-03-04T03:04:29;18.20;;;8.02;;
56720;SDS011;53183;47.412;18.884;2023-03-04T03:06:56;16.00;;;7.05;;
56720;SDS011;53183;47.412;18.884;2023-03-04T03:09:24;19.08;;;9.30;;
56720;SDS011;53183;47.412;18.884;2023-03-04T03:11:51;18.85;;;7.80;;
56720;SDS011;53183;47.412;18.884;2023-03-04T03:14:18;18.40;;;7.43;;
56720;SDS011;53183;47.412;18.884;2023-03-04T03:16:46;19.37;;;8.10;;
56720;SDS011;53183;47.412;18.884;2023-03-04T03:19:13;15.88;;;6.50;;
56720;SDS011;53183;47.412;18.884;2023-03-04T03:21:40;20.02;;;8.32;;
56720;SDS011;53183;47.412;18.884;2023-03-04T03:24:07;18.42;;;7.32;;
56720;SDS011;53183;47.412;18.884;2023-03-04T03:26:34;18.02;;;6.87;;
56720;SDS011;53183;47.412;18.884;2023-03-04T03:29:02;23.10;;;7.07;;
56720;SDS011;53183;47.412;18.884;2023-03-04T03:31:29;23.45;;;7.75;;
56720;SDS011;53183;47.412;18.884;2023-03-04T03:33:56;14.02;;;7.40;;
56720;SDS011;53183;47.412;18.884;2023-03-04T03:36:24;18.40;;;8.02;;
56720;SDS011;53183;47.412;18.884;2023-03-04T03:38:51;17.67;;;6.45;;
56720;SDS011;53183;47.412;18.884;2023-03-04T03:41:18;21.33;;;6.70;;
56720;SDS011;53183;47.412;18.884;2023-03-04T03:43:45;20.75;;;8.13;;
56720;SDS011;53183;47.412;18.884;2023-03-04T03:46:12;18.20;;;8.40;;
56720;SDS011;53183;47.412;18.884;2023-03-04T03:48:40;19.20;;;7.45;;
56720;SDS011;53183;47.412;18.884;2023-03-04T03:51:07;18.92;;;7.22;;
56720;SDS011;53183;47.412;18.884;2023-03-04T03:53:34;18.15;;;7.78;;
56720;SDS011;53183;47.412;18.884;2023-03-04T03:56:01;16.58;;;7.18;;
56720;SDS011;53183;47.412;18.884;2023-03-04T03:58:29;17.90;;;6.65;;
56720;SDS011;53183;47.412;18.884;2023-03-04T04:00:56;21.55;;;7.45;;
56720;SDS011;53183;47.412;18.884;2023-03-04T04:03:24;17.37;;;6.75;;
56720;SDS011;53183;47.412;18.884;2023-03-04T04:05:51;22.90;;;6.60;;
56720;SDS011;53183;47.412;18.884;2023-03-04T04:08:19;18.77;;;7.82;;
56720;SDS011;53183;47.412;18.884;2023-03-04T04:10:46;17.62;;;6.85;;
56720;SDS011;53183;47.412;18.884;2023-03-04T04:13:13;17.05;;;6.68;;
56720;SDS011;53183;47.412;18.884;2023-03-04T04:15:40;17.77;;;6.18;;
56720;SDS011;53183;47.412;18.884;2023-03-04T04:18:08;18.60;;;6.55;;
56720;SDS011;53183;47.412;18.884;2023-03-04T04:20:35;16.67;;;6.68;;
56720;SDS011;53183;47.412;18.884;2023-03-04T04:23:02;20.12;;;6.50;;
56720;SDS011;53183;47.412;18.884;2023-03-04T04:25:30;19.75;;;7.15;;
56720;SDS011;53183;47.412;18.884;2023-03-04T04:27:58;22.02;;;8.18;;
56720;SDS011;53183;47.412;18.884;2023-03-04T04:30:25;20.40;;;8.10;;
56720;SDS011;53183;47.412;18.884;2023-03-04T04:32:52;15.68;;;6.12;;
56720;SDS011;53183;47.412;18.884;2023-03-04T04:35:19;18.27;;;6.53;;
56720;SDS011;53183;47.412;18.884;2023-03-04T04:37:47;24.90;;;8.48;;
56720;SDS011;53183;47.412;18.884;2023-03-04T04:40:14;22.05;;;7.37;;
56720;SDS011;53183;47.412;18.884;2023-03-04T04:42:42;16.50;;;6.15;;
56720;SDS011;53183;47.412;18.884;2023-03-04T04:45:09;17.05;;;6.37;;
56720;SDS011;53183;47.412;18.884;2023-03-04T04:47:37;16.95;;;6.65;;
56720;SDS011;53183;47.412;18.884;2023-03-04T04:50:04;16.75;;;6.60;;
56720;SDS011;53183;47.412;18.884;2023-03-04T04:52:32;16.95;;;7.12;;
56720;SDS011;53183;47.412;18.884;2023-03-04T04:54:59;20.33;;;7.20;;
56720;SDS011;53183;47.412;18.884;2023-03-04T04:57:26;21.80;;;8.18;;
56720;SDS011;53183;47.412;18.884;2023-03-04T04:59:53;23.73;;;7.85;;
56720;SDS011;53183;47.412;18.884;2023-03-04T05:02:21;23.00;;;8.07;;
56720;SDS011;53183;47.412;18.884;2023-03-04T05:04:48;19.95;;;7.97;;
56720;SDS011;53183;47.412;18.884;2023-03-04T05:07:15;33.38;;;9.82;;
56720;SDS011;53183;47.412;18.884;2023-03-04T05:09:43;26.00;;;8.85;;
56720;SDS011;53183;47.412;18.884;2023-03-04T05:12:10;30.85;;;9.48;;
56720;SDS011;53183;47.412;18.884;2023-03-04T05:14:37;27.45;;;10.40;;
56720;SDS011;53183;47.412;18.884;2023-03-04T05:17:05;20.15;;;9.57;;
56720;SDS011;53183;47.412;18.884;2023-03-04T05:19:32;27.80;;;10.23;;
56720;SDS011;53183;47.412;18.884;2023-03-04T05:21:59;33.25;;;10.00;;
56720;SDS011;53183;47.412;18.884;2023-03-04T05:24:26;22.95;;;9.77;;
56720;SDS011;53183;47.412;18.884;2023-03-04T05:26:53;33.47;;;10.07;;
56720;SDS011;53183;47.412;18.884;2023-03-04T05:29:21;29.23;;;10.80;;
56720;SDS011;53183;47.412;18.884;2023-03-04T05:31:48;28.38;;;10.55;;
56720;SDS011;53183;47.412;18.884;2023-03-04T05:34:15;25.77;;;10.43;;
56720;SDS011;53183;47.412;18.884;2023-03-04T05:36:42;26.98;;;10.85;;
56720;SDS011;53183;47.412;18.884;2023-03-04T05:39:10;29.35;;;11.15;;
56720;SDS011;53183;47.412;18.884;2023-03-04T05:41:37;29.73;;;10.98;;
56720;SDS011;53183;47.412;18.884;2023-03-04T05:44:05;25.08;;;11.25;;
56720;SDS011;53183;47.412;18.884;2023-03-04T05:46:32;22.85;;;10.32;;
56720;SDS011;53183;47.412;18.884;2023-03-04T05:48:59;28.02;;;12.10;;
56720;SDS011;53183;47.412;18.884;2023-03-04T05:51:26;33.65;;;12.32;;
56720;SDS011;53183;47.412;18.884;2023-03-04T05:53:54;30.17;;;11.40;;
56720;SDS011;53183;47.412;18.884;2023-03-04T05:56:21;35.55;;;12.90;;
56720;SDS011;53183;47.412;18.884;2023-03-04T05:58:48;32.50;;;11.73;;
56720;SDS011;53183;47.412;18.884;2023-03-04T06:01:16;28.58;;;11.80;;
56720;SDS011;53183;47.412;18.884;2023-03-04T06:03:43;28.90;;;10.63;;
56720;SDS011;53183;47.412;18.884;2023-03-04T06:06:11;28.70;;;12.43;;
56720;SDS011;53183;47.412;18.884;2023-03-04T06:08:38;33.67;;;12.68;;
56720;SDS011;53183;47.412;18.884;2023-03-04T06:11:05;36.28;;;12.13;;
56720;SDS011;53183;47.412;18.884;2023-03-04T06:13:33;32.35;;;13.45;;
56720;SDS011;53183;47.412;18.884;2023-03-04T06:16:00;33.00;;;12.82;;
56720;SDS011;53183;47.412;18.884;2023-03-04T06:18:28;34.55;;;13.62;;
56720;SDS011;53183;47.412;18.884;2023-03-04T06:20:58;32.80;;;12.57;;
56720;SDS011;53183;47.412;18.884;2023-03-04T06:23:27;32.60;;;11.85;;
56720;SDS011;53183;47.412;18.884;2023-03-04T06:25:56;33.30;;;14.05;;
56720;SDS011;53183;47.412;18.884;2023-03-04T06:28:25;33.65;;;14.52;;
56720;SDS011;53183;47.412;18.884;2023-03-04T06:30:53;28.62;;;12.60;;
56720;SDS011;53183;47.412;18.884;2023-03-04T06:33:22;32.75;;;13.62;;
56720;SDS011;53183;47.412;18.884;2023-03-04T06:35:52;31.92;;;13.30;;
56720;SDS011;53183;47.412;18.884;2023-03-04T06:38:21;31.40;;;14.52;;
56720;SDS011;53183;47.412;18.884;2023-03-04T06:40:49;32.60;;;15.13;;
56720;SDS011;53183;47.412;18.884;2023-03-04T06:43:17;37.85;;;15.63;;
56720;SDS011;53183;47.412;18.884;2023-03-04T06:45:45;33.05;;;14.18;;
56720;SDS011;53183;47.412;18.884;2023-03-04T06:48:13;36.38;;;15.70;;
56720;SDS011;53183;47.412;18.884;2023-03-04T06:50:40;37.30;;;14.43;;
56720;SDS011;53183;47.412;18.884;2023-03-04T06:53:07;29.02;;;13.82;;
56720;SDS011;53183;47.412;18.884;2023-03-04T06:55:34;37.17;;;14.57;;
56720;SDS011;53183;47.412;18.884;2023-03-04T06:58:01;36.60;;;16.23;;
56720;SDS011;53183;47.412;18.884;2023-03-04T07:00:28;36.13;;;16.05;;
56720;SDS011;53183;47.412;18.884;2023-03-04T07:02:57;32.15;;;15.77;;
56720;SDS011;53183;47.412;18.884;2023-03-04T07:05:24;32.17;;;14.70;;
56720;SDS011;53183;47.412;18.884;2023-03-04T07:07:52;31.40;;;15.63;;
56720;SDS011;53183;47.412;18.884;2023-03-04T07:10:19;36.05;;;16.27;;
56720;SDS011;53183;47.412;18.884;2023-03-04T07:12:46;34.33;;;15.32;;
56720;SDS011;53183;47.412;18.884;2023-03-04T07:15:14;32.17;;;14.63;;
56720;SDS011;53183;47.412;18.884;2023-03-04T07:17:41;36.72;;;17.40;;
56720;SDS011;53183;47.412;18.884;2023-03-04T07:20:09;31.58;;;14.75;;
56720;SDS011;53183;47.412;18.884;2023-03-04T07:22:36;32.85;;;15.70;;
56720;SDS011;53183;47.412;18.884;2023-03-04T07:25:04;42.30;;;16.65;;
56720;SDS011;53183;47.412;18.884;2023-03-04T07:27:32;44.38;;;19.42;;
56720;SDS011;53183;47.412;18.884;2023-03-04T07:29:59;37.13;;;16.40;;
56720;SDS011;53183;47.412;18.884;2023-03-04T07:32:27;42.60;;;16.70;;
56720;SDS011;53183;47.412;18.884;2023-03-04T07:34:54;39.08;;;17.27;;
56720;SDS011;53183;47.412;18.884;2023-03-04T07:37:21;35.97;;;16.12;;
56720;SDS011;53183;47.412;18.884;2023-03-04T07:39:48;37.22;;;16.70;;
56720;SDS011;53183;47.412;18.884;2023-03-04T07:42:15;29.52;;;15.90;;
56720;SDS011;53183;47.412;18.884;2023-03-04T07:44:44;37.13;;;16.58;;
56720;SDS011;53183;47.412;18.884;2023-03-04T07:47:11;34.70;;;16.25;;
56720;SDS011;53183;47.412;18.884;2023-03-04T07:49:38;34.10;;;16.58;;
56720;SDS011;53183;47.412;18.884;2023-03-04T07:52:05;40.92;;;17.25;;
56720;SDS011;53183;47.412;18.884;2023-03-04T07:54:33;29.95;;;14.48;;
56720;SDS011;53183;47.412;18.884;2023-03-04T07:57:00;44.15;;;17.65;;
56720;SDS011;53183;47.412;18.884;2023-03-04T07:59:27;39.45;;;16.87;;
56720;SDS011;53183;47.412;18.884;2023-03-04T08:01:54;36.22;;;15.50;;
56720;SDS011;53183;47.412;18.884;2023-03-04T08:04:22;39.10;;;15.35;;
56720;SDS011;53183;47.412;18.884;2023-03-04T08:06:49;32.20;;;14.77;;
56720;SDS011;53183;47.412;18.884;2023-03-04T08:09:17;35.95;;;15.80;;
56720;SDS011;53183;47.412;18.884;2023-03-04T08:11:44;34.03;;;15.10;;
56720;SDS011;53183;47.412;18.884;2023-03-04T08:14:12;33.40;;;13.93;;
56720;SDS011;53183;47.412;18.884;2023-03-04T08:16:39;31.10;;;14.60;;
56720;SDS011;53183;47.412;18.884;2023-03-04T08:19:07;35.80;;;14.98;;
56720;SDS011;53183;47.412;18.884;2023-03-04T08:21:34;32.05;;;14.80;;
56720;SDS011;53183;47.412;18.884;2023-03-04T08:24:04;28.23;;;13.50;;
56720;SDS011;53183;47.412;18.884;2023-03-04T08:26:40;29.87;;;14.07;;
56720;SDS011;53183;47.412;18.884;2023-03-04T08:29:10;45.78;;;15.10;;
56720;SDS011;53183;47.412;18.884;2023-03-04T08:31:41;27.58;;;12.23;;
56720;SDS011;53183;47.412;18.884;2023-03-04T08:34:08;24.87;;;12.52;;
56720;SDS011;53183;47.412;18.884;2023-03-04T08:36:36;28.40;;;12.52;;
56720;SDS011;53183;47.412;18.884;2023-03-04T08:39:04;25.33;;;12.45;;
56720;SDS011;53183;47.412;18.884;2023-03-04T08:41:31;31.65;;;13.27;;
56720;SDS011;53183;47.412;18.884;2023-03-04T08:43:59;30.35;;;13.32;;
56720;SDS011;53183;47.412;18.884;2023-03-04T08:46:27;35.72;;;13.48;;
56720;SDS011;53183;47.412;18.884;2023-03-04T08:48:55;31.60;;;12.98;;
56720;SDS011;53183;47.412;18.884;2023-03-04T08:51:22;26.50;;;13.27;;
56720;SDS011;53183;47.412;18.884;2023-03-04T08:53:50;24.58;;;12.10;;
56720;SDS011;53183;47.412;18.884;2023-03-04T08:56:17;31.02;;;12.95;;
56720;SDS011;53183;47.412;18.884;2023-03-04T08:58:44;24.52;;;12.57;;
56720;SDS011;53183;47.412;18.884;2023-03-04T09:01:12;24.98;;;12.07;;
56720;SDS011;53183;47.412;18.884;2023-03-04T09:03:40;26.52;;;12.43;;
56720;SDS011;53183;47.412;18.884;2023-03-04T09:06:08;33.55;;;13.25;;
56720;SDS011;53183;47.412;18.884;2023-03-04T09:08:38;25.50;;;11.82;;
56720;SDS011;53183;47.412;18.884;2023-03-04T09:11:05;26.27;;;12.30;;
56720;SDS011;53183;47.412;18.884;2023-03-04T09:13:32;28.40;;;13.65;;
56720;SDS011;53183;47.412;18.884;2023-03-04T09:16:00;26.95;;;13.93;;
56720;SDS011;53183;47.412;18.884;2023-03-04T09:18:27;26.25;;;12.98;;
56720;SDS011;53183;47.412;18.884;2023-03-04T09:20:54;25.58;;;12.57;;
56720;SDS011;53183;47.412;18.884;2023-03-04T09:23:22;26.83;;;12.73;;
56720;SDS011;53183;47.412;18.884;2023-03-04T09:25:49;29.30;;;12.60;;
56720;SDS011;53183;47.412;18.884;2023-03-04T09:28:16;28.02;;;13.27;;
56720;SDS011;53183;47.412;18.884;2023-03-04T09:30:45;29.98;;;13.65;;
56720;SDS011;53183;47.412;18.884;2023-03-04T09:33:12;26.92;;;13.15;;
56720;SDS011;53183;47.412;18.884;2023-03-04T09:35:40;24.52;;;12.77;;
56720;SDS011;53183;47.412;18.884;2023-03-04T09:38:08;26.95;;;13.27;;
56720;SDS011;53183;47.412;18.884;2023-03-04T09:40:40;29.87;;;13.50;;
56720;SDS011;53183;47.412;18.884;2023-03-04T09:45:42;23.15;;;11.20;;
56720;SDS011;53183;47.412;18.884;2023-03-04T09:48:15;26.23;;;12.85;;
56720;SDS011;53183;47.412;18.884;2023-03-04T09:50:51;27.92;;;12.43;;
56720;SDS011;53183;47.412;18.884;2023-03-04T09:53:32;29.73;;;13.57;;
56720;SDS011;53183;47.412;18.884;2023-03-04T09:56:06;26.80;;;12.88;;
56720;SDS011;53183;47.412;18.884;2023-03-04T09:58:49;28.10;;;13.82;;
56720;SDS011;53183;47.412;18.884;2023-03-04T10:04:16;26.62;;;13.23;;
56720;SDS011;53183;47.412;18.884;2023-03-04T10:06:44;30.75;;;13.93;;
56720;SDS011;53183;47.412;18.884;2023-03-04T10:09:21;29.63;;;14.18;;
56720;SDS011;53183;47.412;18.884;2023-03-04T10:11:54;30.48;;;13.13;;
56720;SDS011;53183;47.412;18.884;2023-03-04T10:14:34;31.40;;;14.23;;
56720;SDS011;53183;47.412;18.884;2023-03-04T10:17:28;33.70;;;13.00;;
56720;SDS011;53183;47.412;18.884;2023-03-04T10:22:46;29.52;;;14.25;;
56720;SDS011;53183;47.412;18.884;2023-03-04T10:25:22;29.20;;;14.23;;
56720;SDS011;53183;47.412;18.884;2023-03-04T10:28:03;30.60;;;14.07;;
56720;SDS011;53183;47.412;18.884;2023-03-04T10:33:20;34.95;;;13.57;;
56720;SDS011;53183;47.412;18.884;2023-03-04T10:38:32;30.40;;;14.57;;
56720;SDS011;53183;47.412;18.884;2023-03-04T10:41:12;36.35;;;13.73;;
56720;SDS011;53183;47.412;18.884;2023-03-04T10:43:42;28.23;;;14.45;;
56720;SDS011;53183;47.412;18.884;2023-03-04T10:46:12;26.75;;;12.57;;
56720;SDS011;53183;47.412;18.884;2023-03-04T10:48:42;35.72;;;12.55;;
56720;SDS011;53183;47.412;18.884;2023-03-04T10:53:49;28.40;;;12.80;;
56720;SDS011;53183;47.412;18.884;2023-03-04T11:02:12;32.92;;;12.37;;
56720;SDS011;53183;47.412;18.884;2023-03-04T11:04:40;31.80;;;12.73;;
56720;SDS011;53183;47.412;18.884;2023-03-04T11:07:08;27.85;;;11.43;;
56720;SDS011;53183;47.412;18.884;2023-03-04T11:09:37;20.88;;;11.30;;
56720;SDS011;53183;47.412;18.884;2023-03-04T11:12:10;22.50;;;10.98;;
56720;SDS011;53183;47.412;18.884;2023-03-04T11:14:41;27.62;;;11.90;;
56720;SDS011;53183;47.412;18.884;2023-03-04T11:19:43;23.25;;;10.75;;
56720;SDS011;53183;47.412;18.884;2023-03-04T11:22:14;23.45;;;10.45;;
56720;SDS011;53183;47.412;18.884;2023-03-04T11:24:44;21.92;;;11.30;;
56720;SDS011;53183;47.412;18.884;2023-03-04T11:27:37;26.52;;;11.50;;
56720;SDS011;53183;47.412;18.884;2023-03-04T11:32:55;34.00;;;10.75;;
56720;SDS011;53183;47.412;18.884;2023-03-04T11:35:33;26.17;;;11.55;;
56720;SDS011;53183;47.412;18.884;2023-03-04T11:38:45;27.42;;;11.27;;
56720;SDS011;53183;47.412;18.884;2023-03-04T11:41:19;26.05;;;10.45;;
56720;SDS011;53183;47.412;18.884;2023-03-04T11:43:54;23.55;;;10.68;;
56720;SDS011;53183;47.412;18.884;2023-03-04T12:03:43;24.67;;;11.90;;
56720;SDS011;53183;47.412;18.884;2023-03-04T12:09:31;25.05;;;11.63;;
56720;SDS011;53183;47.412;18.884;2023-03-04T12:12:16;26.90;;;12.60;;
56720;SDS011;53183;47.412;18.884;2023-03-04T12:18:04;26.05;;;12.90;;
56720;SDS011;53183;47.412;18.884;2023-03-04T12:46:48;35.45;;;15.13;;
56720;SDS011;53183;47.412;18.884;2023-03-04T12:49:39;34.92;;;15.43;;
56720;SDS011;53183;47.412;18.884;2023-03-04T12:52:23;36.45;;;15.13;;
56720;SDS011;53183;47.412;18.884;2023-03-04T12:55:02;28.65;;;15.57;;
56720;SDS011;53183;47.412;18.884;2023-03-04T12:57:35;31.20;;;15.45;;
56720;SDS011;53183;47.412;18.884;2023-03-04T13:08:28;30.35;;;15.27;;
56720;SDS011;53183;47.412;18.884;2023-03-04T13:19:02;35.83;;;17.17;;
56720;SDS011;53183;47.412;18.884;2023-03-04T13:21:29;27.25;;;13.70;;
56720;SDS011;53183;47.412;18.884;2023-03-04T13:23:59;26.55;;;12.88;;
56720;SDS011;53183;47.412;18.884;2023-03-04T13:26:47;23.62;;;12.40;;
56720;SDS011;53183;47.412;18.884;2023-03-04T13:35:21;22.77;;;13.10;;
56720;SDS011;53183;47.412;18.884;2023-03-04T13:37:31;21.77;;;11.50;;
56720;SDS011;53183;47.412;18.884;2023-03-04T13:40:46;26.37;;;11.23;;
56720;SDS011;53183;47.412;18.884;2023-03-04T13:42:52;19.95;;;9.85;;
56720;SDS011;53183;47.412;18.884;2023-03-04T13:45:37;23.23;;;10.93;;
56720;SDS011;53183;47.412;18.884;2023-03-04T13:48:29;22.58;;;10.82;;
56720;SDS011;53183;47.412;18.884;2023-03-04T13:50:59;20.92;;;10.25;;
56720;SDS011;53183;47.412;18.884;2023-03-04T13:53:39;27.33;;;9.70;;
56720;SDS011;53183;47.412;18.884;2023-03-04T14:04:55;18.17;;;9.40;;
56720;SDS011;53183;47.412;18.884;2023-03-04T14:10:32;16.27;;;8.30;;
56720;SDS011;53183;47.412;18.884;2023-03-04T14:12:44;23.23;;;9.30;;
56720;SDS011;53183;47.412;18.884;2023-03-04T14:17:48;25.27;;;10.32;;
56720;SDS011;53183;47.412;18.884;2023-03-04T14:22:56;21.00;;;9.27;;
56720;SDS011;53183;47.412;18.884;2023-03-04T14:25:26;21.23;;;9.20;;
56720;SDS011;53183;47.412;18.884;2023-03-04T14:28:02;24.45;;;10.70;;
56720;SDS011;53183;47.412;18.884;2023-03-04T14:30:41;17.75;;;9.15;;
56720;SDS011;53183;47.412;18.884;2023-03-04T14:33:20;20.50;;;9.65;;
56720;SDS011;53183;47.412;18.884;2023-03-04T14:35:52;23.92;;;9.93;;
56720;SDS011;53183;47.412;18.884;2023-03-04T14:41:07;16.00;;;8.57;;
56720;SDS011;53183;47.412;18.884;2023-03-04T14:46:25;15.38;;;8.75;;
56720;SDS011;53183;47.412;18.884;2023-03-04T14:48:58;21.42;;;8.65;;
56720;SDS011;53183;47.412;18.884;2023-03-04T14:54:04;17.52;;;8.45;;
56720;SDS011;53183;47.412;18.884;2023-03-04T14:56:34;17.23;;;8.23;;
56720;SDS011;53183;47.412;18.884;2023-03-04T14:59:01;15.82;;;7.30;;
56720;SDS011;53183;47.412;18.884;2023-03-04T15:01:35;14.70;;;6.75;;
56720;SDS011;53183;47.412;18.884;2023-03-04T15:04:08;13.95;;;6.28;;
56720;SDS011;53183;47.412;18.884;2023-03-04T15:06:53;13.20;;;7.32;;
56720;SDS011;53183;47.412;18.884;2023-03-04T15:09:24;13.73;;;6.85;;
56720;SDS011;53183;47.412;18.884;2023-03-04T15:11:59;15.68;;;7.50;;
56720;SDS011;53183;47.412;18.884;2023-03-04T15:17:22;14.50;;;7.05;;
56720;SDS011;53183;47.412;18.884;2023-03-04T15:22:26;17.12;;;7.35;;
56720;SDS011;53183;47.412;18.884;2023-03-04T15:24:54;15.73;;;7.28;;
56720;SDS011;53183;47.412;18.884;2023-03-04T15:27:21;20.10;;;7.45;;
56720;SDS011;53183;47.412;18.884;2023-03-04T15:29:53;18.12;;;7.90;;
56720;SDS011;53183;47.412;18.884;2023-03-04T15:32:25;17.52;;;8.02;;
56720;SDS011;53183;47.412;18.884;2023-03-04T15:34:53;18.87;;;9.15;;
56720;SDS011;53183;47.412;18.884;2023-03-04T15:37:22;16.87;;;8.07;;
56720;SDS011;53183;47.412;18.884;2023-03-04T15:39:53;17.42;;;9.18;;
56720;SDS011;53183;47.412;18.884;2023-03-04T15:42:22;24.15;;;8.77;;
56720;SDS011;53183;47.412;18.884;2023-03-04T15:44:49;22.87;;;10.18;;
56720;SDS011;53183;47.412;18.884;2023-03-04T15:47:17;16.73;;;8.88;;
56720;SDS011;53183;47.412;18.884;2023-03-04T15:49:44;24.48;;;9.80;;
56720;SDS011;53183;47.412;18.884;2023-03-04T15:52:17;24.95;;;11.25;;
56720;SDS011;53183;47.412;18.884;2023-03-04T15:54:47;20.48;;;9.35;;
56720;SDS011;53183;47.412;18.884;2023-03-04T15:57:19;18.37;;;10.32;;
56720;SDS011;53183;47.412;18.884;2023-03-04T15:59:50;26.08;;;10.57;;
56720;SDS011;53183;47.412;18.884;2023-03-04T16:02:19;25.33;;;11.43;;
56720;SDS011;53183;47.412;18.884;2023-03-04T16:04:48;25.62;;;11.18;;
56720;SDS011;53183;47.412;18.884;2023-03-04T16:07:20;23.80;;;11.02;;
56720;SDS011;53183;47.412;18.884;2023-03-04T16:09:52;24.10;;;10.57;;
56720;SDS011;53183;47.412;18.884;2023-03-04T16:12:22;21.20;;;10.70;;
56720;SDS011;53183;47.412;18.884;2023-03-04T16:14:52;20.77;;;10.20;;
56720;SDS011;53183;47.412;18.884;2023-03-04T16:17:19;23.05;;;10.73;;
56720;SDS011;53183;47.412;18.884;2023-03-04T16:19:46;19.87;;;10.93;;
56720;SDS011;53183;47.412;18.884;2023-03-04T16:22:14;23.02;;;10.60;;
56720;SDS011;53183;47.412;18.884;2023-03-04T16:24:44;28.67;;;11.35;;
56720;SDS011;53183;47.412;18.884;2023-03-04T16:27:11;24.75;;;9.70;;
56720;SDS011;53183;47.412;18.884;2023-03-04T16:29:41;21.15;;;10.25;;
56720;SDS011;53183;47.412;18.884;2023-03-04T16:32:09;20.35;;;10.50;;
56720;SDS011;53183;47.412;18.884;2023-03-04T16:34:37;24.77;;;9.65;;
56720;SDS011;53183;47.412;18.884;2023-03-04T16:37:06;22.08;;;10.68;;
56720;SDS011;53183;47.412;18.884;2023-03-04T16:39:38;21.08;;;8.52;;
56720;SDS011;53183;47.412;18.884;2023-03-04T16:42:13;18.00;;;8.73;;